sensor_id;sensor_type;location;lat;lon;timestamp;P1;durP1;ratioP1;P2;durP2;ratioP2
25758;SDS011;13604;52.496;13.456;2024-02-26T00:00:02;31.83;;;18.23;;
25758;SDS011;13604;52.496;13.456;2024-02-26T00:02:28;29.63;;;18.77;;
25758;SDS011;13604;52.496;13.456;2024-02-26T00:04:53;35.45;;;20.92;;
25758;SDS011;13604;52.496;13.456;2024-02-26T00:07:18;32.70;;;19.95;;
25758;SDS011;13604;52.496;13.456;2024-02-26T00:09:44;32.58;;;19.08;;
25758;SDS011;13604;52.496;13.456;2024-02-26T00:12:09;33.10;;;19.95;;
25758;SDS011;13604;52.496;13.456;2024-02-26T00:14:34;30.83;;;18.02;;
25758;SDS011;13604;52.496;13.456;2024-02-26T00:17:00;29.23;;;18.00;;
25758;SDS011;13604;52.496;13.456;2024-02-26T00:19:25;34.72;;;19.88;;
25758;SDS011;13604;52.496;13.456;2024-02-26T00:21:50;40.10;;;22.77;;
25758;SDS011;13604;52.496;13.456;2024-02-26T00:24:16;43.40;;;21.55;;
25758;SDS011;13604;52.496;13.456;2024-02-26T00:26:41;35.50;;;18.85;;
25758;SDS011;13604;52.496;13.456;2024-02-26T00:29:06;32.17;;;19.63;;
25758;SDS011;13604;52.496;13.456;2024-02-26T00:31:32;33.50;;;20.15;;
25758;SDS011;13604;52.496;13.456;2024-02-26T00:33:57;37.67;;;22.00;;
25758;SDS011;13604;52.496;13.456;2024-02-26T00:36:22;38.13;;;21.13;;
25758;SDS011;13604;52.496;13.456;2024-02-26T00:38:48;37.85;;;21.90;;
25758;SDS011;13604;52.496;13.456;2024-02-26T00:41:19;33.90;;;20.48;;
25758;SDS011;13604;52.496;13.456;2024-02-26T00:43:45;37.15;;;21.00;;
25758;SDS011;13604;52.496;13.456;2024-02-26T00:46:10;32.90;;;19.77;;
25758;SDS011;13604;52.496;13.456;2024-02-26T00:48:35;33.35;;;19.63;;
25758;SDS011;13604;52.496;13.456;2024-02-26T00:51:02;33.40;;;20.60;;
25758;SDS011;13604;52.496;13.456;2024-02-26T00:53:30;33.83;;;19.58;;
25758;SDS011;13604;52.496;13.456;2024-02-26T00:55:55;31.98;;;18.08;;
25758;SDS011;13604;52.496;13.456;2024-02-26T00:58:20;33.50;;;18.60;;
25758;SDS011;13604;52.496;13.456;2024-02-26T01:00:46;32.40;;;18.17;;
25758;SDS011;13604;52.496;13.456;2024-02-26T01:03:11;30.55;;;18.48;;
25758;SDS011;13604;52.496;13.456;2024-02-26T01:05:36;30.73;;;17.65;;
25758;SDS011;13604;52.496;13.456;2024-02-26T01:08:03;28.00;;;17.48;;
25758;SDS011;13604;52.496;13.456;2024-02-26T01:10:28;25.13;;;16.60;;
25758;SDS011;13604;52.496;13.456;2024-02-26T01:12:54;29.80;;;18.60;;
25758;SDS011;13604;52.496;13.456;2024-02-26T01:15:19;35.30;;;19.80;;
25758;SDS011;13604;52.496;13.456;2024-02-26T01:17:48;33.58;;;19.83;;
25758;SDS011;13604;52.496;13.456;2024-02-26T01:20:13;33.00;;;18.25;;
25758;SDS011;13604;52.496;13.456;2024-02-26T01:22:39;34.28;;;19.42;;
25758;SDS011;13604;52.496;13.456;2024-02-26T01:25:05;34.00;;;18.73;;
25758;SDS011;13604;52.496;13.456;2024-02-26T01:27:32;31.27;;;18.17;;
25758;SDS011;13604;52.496;13.456;2024-02-26T01:29:57;29.75;;;18.50;;
25758;SDS011;13604;52.496;13.456;2024-02-26T01:32:22;32.05;;;18.15;;
25758;SDS011;13604;52.496;13.456;2024-02-26T01:34:48;33.22;;;17.45;;
25758;SDS011;13604;52.496;13.456;2024-02-26T01:37:13;29.25;;;17.23;;
25758;SDS011;13604;52.496;13.456;2024-02-26T01:39:38;27.30;;;17.23;;
25758;SDS011;13604;52.496;13.456;2024-02-26T01:42:06;26.45;;;15.20;;
25758;SDS011;13604;52.496;13.456;2024-02-26T01:44:31;26.10;;;16.63;;
25758;SDS011;13604;52.496;13.456;2024-02-26T01:46:57;29.95;;;17.73;;
25758;SDS011;13604;52.496;13.456;2024-02-26T01:49:22;30.25;;;17.23;;
25758;SDS011;13604;52.496;13.456;2024-02-26T01:51:48;24.85;;;16.13;;
25758;SDS011;13604;52.496;13.456;2024-02-26T01:54:13;30.95;;;17.88;;
25758;SDS011;13604;52.496;13.456;2024-02-26T01:56:41;24.50;;;15.77;;
25758;SDS011;13604;52.496;13.456;2024-02-26T01:59:07;24.65;;;16.55;;
25758;SDS011;13604;52.496;13.456;2024-02-26T02:01:33;25.95;;;16.63;;
25758;SDS011;13604;52.496;13.456;2024-02-26T02:04:00;30.17;;;17.25;;
25758;SDS011;13604;52.496;13.456;2024-02-26T02:06:26;29.80;;;16.90;;
25758;SDS011;13604;52.496;13.456;2024-02-26T02:08:54;27.42;;;16.75;;
25758;SDS011;13604;52.496;13.456;2024-02-26T02:11:19;28.15;;;16.42;;
25758;SDS011;13604;52.496;13.456;2024-02-26T02:13:45;25.42;;;15.55;;
25758;SDS011;13604;52.496;13.456;2024-02-26T02:16:10;25.88;;;15.73;;
25758;SDS011;13604;52.496;13.456;2024-02-26T02:18:35;28.52;;;16.23;;
25758;SDS011;13604;52.496;13.456;2024-02-26T02:21:01;25.38;;;15.35;;
25758;SDS011;13604;52.496;13.456;2024-02-26T02:23:26;26.38;;;16.58;;
25758;SDS011;13604;52.496;13.456;2024-02-26T02:25:52;24.73;;;14.57;;
25758;SDS011;13604;52.496;13.456;2024-02-26T02:28:18;26.98;;;15.48;;
25758;SDS011;13604;52.496;13.456;2024-02-26T02:30:44;26.02;;;15.95;;
25758;SDS011;13604;52.496;13.456;2024-02-26T02:33:09;21.88;;;14.15;;
25758;SDS011;13604;52.496;13.456;2024-02-26T02:35:36;23.00;;;14.73;;
25758;SDS011;13604;52.496;13.456;2024-02-26T02:38:02;29.02;;;16.63;;
25758;SDS011;13604;52.496;13.456;2024-02-26T02:40:28;24.10;;;14.95;;
25758;SDS011;13604;52.496;13.456;2024-02-26T02:42:53;25.17;;;15.45;;
25758;SDS011;13604;52.496;13.456;2024-02-26T02:45:18;27.38;;;14.70;;
25758;SDS011;13604;52.496;13.456;2024-02-26T02:47:44;26.27;;;14.10;;
25758;SDS011;13604;52.496;13.456;2024-02-26T02:50:09;28.05;;;15.23;;
25758;SDS011;13604;52.496;13.456;2024-02-26T02:52:34;29.02;;;14.52;;
25758;SDS011;13604;52.496;13.456;2024-02-26T02:55:00;20.90;;;13.30;;
25758;SDS011;13604;52.496;13.456;2024-02-26T02:57:26;22.75;;;13.70;;
25758;SDS011;13604;52.496;13.456;2024-02-26T02:59:51;28.33;;;14.15;;
25758;SDS011;13604;52.496;13.456;2024-02-26T03:02:16;22.42;;;13.35;;
25758;SDS011;13604;52.496;13.456;2024-02-26T03:04:41;21.40;;;12.75;;
25758;SDS011;13604;52.496;13.456;2024-02-26T03:07:07;23.38;;;13.55;;
25758;SDS011;13604;52.496;13.456;2024-02-26T03:09:32;19.65;;;12.50;;
25758;SDS011;13604;52.496;13.456;2024-02-26T03:11:57;19.63;;;11.88;;
25758;SDS011;13604;52.496;13.456;2024-02-26T03:14:23;22.02;;;12.73;;
25758;SDS011;13604;52.496;13.456;2024-02-26T03:16:48;21.50;;;12.38;;
25758;SDS011;13604;52.496;13.456;2024-02-26T03:19:14;20.33;;;12.13;;
25758;SDS011;13604;52.496;13.456;2024-02-26T03:21:40;17.48;;;11.25;;
25758;SDS011;13604;52.496;13.456;2024-02-26T03:24:06;19.92;;;11.40;;
25758;SDS011;13604;52.496;13.456;2024-02-26T03:26:34;20.95;;;12.13;;
25758;SDS011;13604;52.496;13.456;2024-02-26T03:28:59;22.17;;;13.00;;
25758;SDS011;13604;52.496;13.456;2024-02-26T03:31:24;18.45;;;11.55;;
25758;SDS011;13604;52.496;13.456;2024-02-26T03:33:49;23.23;;;13.45;;
25758;SDS011;13604;52.496;13.456;2024-02-26T03:36:15;19.33;;;12.43;;
25758;SDS011;13604;52.496;13.456;2024-02-26T03:38:40;19.60;;;11.10;;
25758;SDS011;13604;52.496;13.456;2024-02-26T03:41:05;20.65;;;12.52;;
25758;SDS011;13604;52.496;13.456;2024-02-26T03:43:31;22.15;;;12.38;;
25758;SDS011;13604;52.496;13.456;2024-02-26T03:45:56;20.02;;;11.85;;
25758;SDS011;13604;52.496;13.456;2024-02-26T03:48:22;19.38;;;12.52;;
25758;SDS011;13604;52.496;13.456;2024-02-26T03:50:47;22.08;;;12.95;;
25758;SDS011;13604;52.496;13.456;2024-02-26T03:53:12;21.88;;;12.85;;
25758;SDS011;13604;52.496;13.456;2024-02-26T03:55:38;20.20;;;12.13;;
25758;SDS011;13604;52.496;13.456;2024-02-26T03:58:03;23.50;;;13.88;;
25758;SDS011;13604;52.496;13.456;2024-02-26T04:00:28;22.73;;;13.82;;
25758;SDS011;13604;52.496;13.456;2024-02-26T04:02:55;23.42;;;14.63;;
25758;SDS011;13604;52.496;13.456;2024-02-26T04:05:20;25.83;;;14.90;;
25758;SDS011;13604;52.496;13.456;2024-02-26T04:07:46;24.83;;;14.70;;
25758;SDS011;13604;52.496;13.456;2024-02-26T04:10:11;26.92;;;14.90;;
25758;SDS011;13604;52.496;13.456;2024-02-26T04:12:40;24.90;;;14.75;;
25758;SDS011;13604;52.496;13.456;2024-02-26T04:15:09;27.00;;;16.45;;
25758;SDS011;13604;52.496;13.456;2024-02-26T04:17:36;25.52;;;14.90;;
25758;SDS011;13604;52.496;13.456;2024-02-26T04:20:01;27.55;;;15.57;;
25758;SDS011;13604;52.496;13.456;2024-02-26T04:22:27;22.45;;;15.48;;
25758;SDS011;13604;52.496;13.456;2024-02-26T04:24:52;25.58;;;14.82;;
25758;SDS011;13604;52.496;13.456;2024-02-26T04:27:20;30.70;;;16.17;;
25758;SDS011;13604;52.496;13.456;2024-02-26T04:29:45;27.10;;;15.98;;
25758;SDS011;13604;52.496;13.456;2024-02-26T04:32:11;25.48;;;15.43;;
25758;SDS011;13604;52.496;13.456;2024-02-26T04:34:36;26.45;;;15.80;;
25758;SDS011;13604;52.496;13.456;2024-02-26T04:37:01;26.48;;;16.40;;
25758;SDS011;13604;52.496;13.456;2024-02-26T04:39:27;26.63;;;16.67;;
25758;SDS011;13604;52.496;13.456;2024-02-26T04:41:52;29.08;;;16.02;;
25758;SDS011;13604;52.496;13.456;2024-02-26T04:44:17;31.30;;;17.08;;
25758;SDS011;13604;52.496;13.456;2024-02-26T04:46:42;33.35;;;17.58;;
25758;SDS011;13604;52.496;13.456;2024-02-26T04:49:08;30.38;;;18.13;;
25758;SDS011;13604;52.496;13.456;2024-02-26T04:51:34;30.60;;;16.75;;
25758;SDS011;13604;52.496;13.456;2024-02-26T04:53:59;26.77;;;15.98;;
25758;SDS011;13604;52.496;13.456;2024-02-26T04:56:24;29.58;;;17.25;;
25758;SDS011;13604;52.496;13.456;2024-02-26T04:58:50;31.67;;;17.70;;
25758;SDS011;13604;52.496;13.456;2024-02-26T05:01:15;35.72;;;19.02;;
25758;SDS011;13604;52.496;13.456;2024-02-26T05:03:42;32.78;;;18.70;;
25758;SDS011;13604;52.496;13.456;2024-02-26T05:06:07;32.03;;;18.45;;
25758;SDS011;13604;52.496;13.456;2024-02-26T05:08:34;36.00;;;19.75;;
25758;SDS011;13604;52.496;13.456;2024-02-26T05:11:00;41.58;;;20.38;;
25758;SDS011;13604;52.496;13.456;2024-02-26T05:13:27;44.53;;;20.00;;
25758;SDS011;13604;52.496;13.456;2024-02-26T05:15:52;45.28;;;21.40;;
25758;SDS011;13604;52.496;13.456;2024-02-26T05:18:18;38.83;;;21.10;;
25758;SDS011;13604;52.496;13.456;2024-02-26T05:20:43;40.45;;;19.77;;
25758;SDS011;13604;52.496;13.456;2024-02-26T05:23:09;41.25;;;22.15;;
25758;SDS011;13604;52.496;13.456;2024-02-26T05:25:34;41.08;;;20.88;;
25758;SDS011;13604;52.496;13.456;2024-02-26T05:27:59;44.25;;;22.95;;
25758;SDS011;13604;52.496;13.456;2024-02-26T05:30:25;45.42;;;22.27;;
25758;SDS011;13604;52.496;13.456;2024-02-26T05:32:52;38.70;;;21.77;;
25758;SDS011;13604;52.496;13.456;2024-02-26T05:35:17;38.05;;;21.23;;
25758;SDS011;13604;52.496;13.456;2024-02-26T05:37:42;39.45;;;21.33;;
25758;SDS011;13604;52.496;13.456;2024-02-26T05:40:08;44.47;;;23.05;;
25758;SDS011;13604;52.496;13.456;2024-02-26T05:42:33;45.78;;;22.55;;
25758;SDS011;13604;52.496;13.456;2024-02-26T05:44:58;40.92;;;22.08;;
25758;SDS011;13604;52.496;13.456;2024-02-26T05:47:24;43.72;;;22.45;;
25758;SDS011;13604;52.496;13.456;2024-02-26T05:49:49;46.20;;;22.73;;
25758;SDS011;13604;52.496;13.456;2024-02-26T05:52:14;48.80;;;23.90;;
25758;SDS011;13604;52.496;13.456;2024-02-26T05:54:40;44.40;;;23.25;;
25758;SDS011;13604;52.496;13.456;2024-02-26T05:57:05;47.65;;;25.02;;
25758;SDS011;13604;52.496;13.456;2024-02-26T05:59:30;45.50;;;23.73;;
25758;SDS011;13604;52.496;13.456;2024-02-26T06:01:56;47.08;;;25.70;;
25758;SDS011;13604;52.496;13.456;2024-02-26T06:04:21;55.83;;;26.60;;
25758;SDS011;13604;52.496;13.456;2024-02-26T06:06:46;48.97;;;24.77;;
25758;SDS011;13604;52.496;13.456;2024-02-26T06:09:11;46.38;;;23.20;;
25758;SDS011;13604;52.496;13.456;2024-02-26T06:11:37;50.92;;;25.63;;
25758;SDS011;13604;52.496;13.456;2024-02-26T06:14:02;53.33;;;24.95;;
25758;SDS011;13604;52.496;13.456;2024-02-26T06:16:28;51.13;;;25.38;;
25758;SDS011;13604;52.496;13.456;2024-02-26T06:18:53;49.30;;;25.45;;
25758;SDS011;13604;52.496;13.456;2024-02-26T06:21:18;50.22;;;25.35;;
25758;SDS011;13604;52.496;13.456;2024-02-26T06:23:44;51.88;;;25.35;;
25758;SDS011;13604;52.496;13.456;2024-02-26T06:26:09;45.80;;;25.70;;
25758;SDS011;13604;52.496;13.456;2024-02-26T06:28:35;51.50;;;27.52;;
25758;SDS011;13604;52.496;13.456;2024-02-26T06:31:00;55.22;;;26.77;;
25758;SDS011;13604;52.496;13.456;2024-02-26T06:33:26;51.50;;;26.35;;
25758;SDS011;13604;52.496;13.456;2024-02-26T06:35:51;58.78;;;28.70;;
25758;SDS011;13604;52.496;13.456;2024-02-26T06:38:16;56.13;;;28.23;;
25758;SDS011;13604;52.496;13.456;2024-02-26T06:40:43;52.58;;;28.35;;
25758;SDS011;13604;52.496;13.456;2024-02-26T06:43:09;57.47;;;28.33;;
25758;SDS011;13604;52.496;13.456;2024-02-26T06:45:34;52.38;;;27.85;;
25758;SDS011;13604;52.496;13.456;2024-02-26T06:48:00;53.72;;;28.15;;
25758;SDS011;13604;52.496;13.456;2024-02-26T06:50:25;51.85;;;28.45;;
25758;SDS011;13604;52.496;13.456;2024-02-26T06:52:51;50.97;;;27.77;;
25758;SDS011;13604;52.496;13.456;2024-02-26T06:55:16;50.67;;;26.27;;
25758;SDS011;13604;52.496;13.456;2024-02-26T06:57:42;45.03;;;24.73;;
25758;SDS011;13604;52.496;13.456;2024-02-26T07:00:07;45.40;;;24.50;;
25758;SDS011;13604;52.496;13.456;2024-02-26T07:02:33;36.83;;;23.40;;
25758;SDS011;13604;52.496;13.456;2024-02-26T07:04:58;31.92;;;20.83;;
25758;SDS011;13604;52.496;13.456;2024-02-26T07:07:24;33.83;;;19.77;;
25758;SDS011;13604;52.496;13.456;2024-02-26T07:09:50;32.42;;;18.88;;
25758;SDS011;13604;52.496;13.456;2024-02-26T07:12:15;32.55;;;18.10;;
25758;SDS011;13604;52.496;13.456;2024-02-26T07:14:46;27.42;;;17.02;;
25758;SDS011;13604;52.496;13.456;2024-02-26T07:17:11;23.58;;;16.05;;
25758;SDS011;13604;52.496;13.456;2024-02-26T07:19:36;26.38;;;15.77;;
25758;SDS011;13604;52.496;13.456;2024-02-26T07:22:01;22.80;;;15.13;;
25758;SDS011;13604;52.496;13.456;2024-02-26T07:24:27;23.08;;;14.68;;
25758;SDS011;13604;52.496;13.456;2024-02-26T07:26:53;22.48;;;13.88;;
25758;SDS011;13604;52.496;13.456;2024-02-26T07:29:20;24.33;;;14.13;;
25758;SDS011;13604;52.496;13.456;2024-02-26T07:31:45;21.65;;;14.00;;
25758;SDS011;13604;52.496;13.456;2024-02-26T07:34:11;23.13;;;13.98;;
25758;SDS011;13604;52.496;13.456;2024-02-26T07:36:36;19.60;;;13.38;;
25758;SDS011;13604;52.496;13.456;2024-02-26T07:39:01;22.30;;;13.82;;
25758;SDS011;13604;52.496;13.456;2024-02-26T07:41:27;20.92;;;14.27;;
25758;SDS011;13604;52.496;13.456;2024-02-26T07:43:52;24.10;;;13.98;;
25758;SDS011;13604;52.496;13.456;2024-02-26T07:46:17;22.73;;;14.00;;
25758;SDS011;13604;52.496;13.456;2024-02-26T07:48:43;24.02;;;14.90;;
25758;SDS011;13604;52.496;13.456;2024-02-26T07:51:08;21.52;;;13.90;;
25758;SDS011;13604;52.496;13.456;2024-02-26T07:53:34;21.25;;;14.27;;
25758;SDS011;13604;52.496;13.456;2024-02-26T07:55:59;20.80;;;13.98;;
25758;SDS011;13604;52.496;13.456;2024-02-26T07:58:24;20.48;;;13.85;;
25758;SDS011;13604;52.496;13.456;2024-02-26T08:00:50;25.50;;;14.82;;
25758;SDS011;13604;52.496;13.456;2024-02-26T08:03:15;23.85;;;14.48;;
25758;SDS011;13604;52.496;13.456;2024-02-26T08:05:41;21.10;;;14.10;;
25758;SDS011;13604;52.496;13.456;2024-02-26T08:08:08;22.08;;;13.52;;
25758;SDS011;13604;52.496;13.456;2024-02-26T08:10:33;24.17;;;14.23;;
25758;SDS011;13604;52.496;13.456;2024-02-26T08:12:59;21.40;;;13.75;;
25758;SDS011;13604;52.496;13.456;2024-02-26T08:15:30;22.75;;;14.55;;
25758;SDS011;13604;52.496;13.456;2024-02-26T08:17:56;26.60;;;13.93;;
25758;SDS011;13604;52.496;13.456;2024-02-26T08:20:21;20.40;;;13.50;;
25758;SDS011;13604;52.496;13.456;2024-02-26T08:22:46;24.48;;;14.85;;
25758;SDS011;13604;52.496;13.456;2024-02-26T08:25:12;26.23;;;14.50;;
25758;SDS011;13604;52.496;13.456;2024-02-26T08:27:37;25.95;;;15.38;;
25758;SDS011;13604;52.496;13.456;2024-02-26T08:30:02;22.60;;;14.23;;
25758;SDS011;13604;52.496;13.456;2024-02-26T08:32:28;22.98;;;13.38;;
25758;SDS011;13604;52.496;13.456;2024-02-26T08:34:53;25.50;;;14.73;;
25758;SDS011;13604;52.496;13.456;2024-02-26T08:37:18;22.10;;;14.75;;
25758;SDS011;13604;52.496;13.456;2024-02-26T08:39:44;31.05;;;16.05;;
25758;SDS011;13604;52.496;13.456;2024-02-26T08:42:10;23.83;;;14.07;;
25758;SDS011;13604;52.496;13.456;2024-02-26T08:44:36;24.00;;;13.45;;
25758;SDS011;13604;52.496;13.456;2024-02-26T08:47:01;22.05;;;13.75;;
25758;SDS011;13604;52.496;13.456;2024-02-26T08:49:27;20.23;;;13.70;;
25758;SDS011;13604;52.496;13.456;2024-02-26T08:51:52;22.98;;;13.13;;
25758;SDS011;13604;52.496;13.456;2024-02-26T08:54:18;21.33;;;12.75;;
25758;SDS011;13604;52.496;13.456;2024-02-26T08:56:43;22.02;;;14.10;;
25758;SDS011;13604;52.496;13.456;2024-02-26T08:59:08;23.88;;;13.93;;
25758;SDS011;13604;52.496;13.456;2024-02-26T09:01:34;19.52;;;12.38;;
25758;SDS011;13604;52.496;13.456;2024-02-26T09:03:59;20.80;;;13.80;;
25758;SDS011;13604;52.496;13.456;2024-02-26T09:06:24;21.10;;;12.45;;
25758;SDS011;13604;52.496;13.456;2024-02-26T09:08:50;18.67;;;12.70;;
25758;SDS011;13604;52.496;13.456;2024-02-26T09:11:15;19.93;;;12.10;;
25758;SDS011;13604;52.496;13.456;2024-02-26T09:13:40;22.83;;;12.90;;
25758;SDS011;13604;52.496;13.456;2024-02-26T09:16:06;21.80;;;13.27;;
25758;SDS011;13604;52.496;13.456;2024-02-26T09:18:31;18.50;;;12.68;;
25758;SDS011;13604;52.496;13.456;2024-02-26T09:20:56;17.00;;;11.63;;
25758;SDS011;13604;52.496;13.456;2024-02-26T09:23:22;19.15;;;13.00;;
25758;SDS011;13604;52.496;13.456;2024-02-26T09:25:47;21.58;;;13.68;;
25758;SDS011;13604;52.496;13.456;2024-02-26T09:28:12;21.33;;;12.18;;
25758;SDS011;13604;52.496;13.456;2024-02-26T09:30:38;22.73;;;13.25;;
25758;SDS011;13604;52.496;13.456;2024-02-26T09:33:03;18.55;;;12.00;;
25758;SDS011;13604;52.496;13.456;2024-02-26T09:35:29;19.52;;;12.38;;
25758;SDS011;13604;52.496;13.456;2024-02-26T09:37:55;17.88;;;11.73;;
25758;SDS011;13604;52.496;13.456;2024-02-26T09:40:20;17.27;;;12.15;;
25758;SDS011;13604;52.496;13.456;2024-02-26T09:42:47;16.63;;;11.40;;
25758;SDS011;13604;52.496;13.456;2024-02-26T09:45:15;18.35;;;11.45;;
25758;SDS011;13604;52.496;13.456;2024-02-26T09:47:43;17.95;;;11.35;;
25758;SDS011;13604;52.496;13.456;2024-02-26T09:50:09;15.45;;;10.77;;
25758;SDS011;13604;52.496;13.456;2024-02-26T09:52:37;16.50;;;11.32;;
25758;SDS011;13604;52.496;13.456;2024-02-26T09:55:03;14.75;;;10.50;;
25758;SDS011;13604;52.496;13.456;2024-02-26T09:57:29;17.45;;;10.65;;
25758;SDS011;13604;52.496;13.456;2024-02-26T09:59:55;13.13;;;9.90;;
25758;SDS011;13604;52.496;13.456;2024-02-26T10:02:36;14.55;;;10.00;;
25758;SDS011;13604;52.496;13.456;2024-02-26T10:05:03;12.65;;;9.02;;
25758;SDS011;13604;52.496;13.456;2024-02-26T10:07:30;16.75;;;10.57;;
25758;SDS011;13604;52.496;13.456;2024-02-26T10:09:55;14.57;;;10.30;;
25758;SDS011;13604;52.496;13.456;2024-02-26T10:12:21;14.77;;;9.35;;
25758;SDS011;13604;52.496;13.456;2024-02-26T10:14:46;14.13;;;9.32;;
25758;SDS011;13604;52.496;13.456;2024-02-26T10:17:12;14.73;;;9.85;;
25758;SDS011;13604;52.496;13.456;2024-02-26T10:19:37;17.70;;;10.13;;
25758;SDS011;13604;52.496;13.456;2024-02-26T10:22:03;12.38;;;8.23;;
25758;SDS011;13604;52.496;13.456;2024-02-26T10:24:29;13.32;;;8.98;;
25758;SDS011;13604;52.496;13.456;2024-02-26T10:26:55;14.40;;;9.65;;
25758;SDS011;13604;52.496;13.456;2024-02-26T10:29:21;13.25;;;10.10;;
25758;SDS011;13604;52.496;13.456;2024-02-26T10:31:48;19.63;;;9.60;;
25758;SDS011;13604;52.496;13.456;2024-02-26T10:34:16;15.40;;;9.10;;
25758;SDS011;13604;52.496;13.456;2024-02-26T10:36:42;13.35;;;8.70;;
25758;SDS011;13604;52.496;13.456;2024-02-26T10:39:08;12.73;;;7.68;;
25758;SDS011;13604;52.496;13.456;2024-02-26T10:41:34;14.68;;;8.82;;
25758;SDS011;13604;52.496;13.456;2024-02-26T10:43:59;14.93;;;8.05;;
25758;SDS011;13604;52.496;13.456;2024-02-26T10:46:25;11.98;;;7.22;;
25758;SDS011;13604;52.496;13.456;2024-02-26T10:48:50;12.52;;;8.18;;
25758;SDS011;13604;52.496;13.456;2024-02-26T10:51:16;12.15;;;8.40;;
25758;SDS011;13604;52.496;13.456;2024-02-26T10:53:45;12.55;;;7.57;;
25758;SDS011;13604;52.496;13.456;2024-02-26T10:56:12;11.70;;;7.45;;
25758;SDS011;13604;52.496;13.456;2024-02-26T10:58:40;11.50;;;7.75;;
25758;SDS011;13604;52.496;13.456;2024-02-26T11:02:34;8.75;;;6.72;;
25758;SDS011;13604;52.496;13.456;2024-02-26T11:05:02;9.50;;;6.82;;
25758;SDS011;13604;52.496;13.456;2024-02-26T11:07:32;12.43;;;6.63;;
25758;SDS011;13604;52.496;13.456;2024-02-26T11:09:59;11.40;;;7.45;;
25758;SDS011;13604;52.496;13.456;2024-02-26T11:12:24;10.75;;;8.13;;
25758;SDS011;13604;52.496;13.456;2024-02-26T11:14:50;12.10;;;7.32;;
25758;SDS011;13604;52.496;13.456;2024-02-26T11:17:19;10.18;;;7.25;;
25758;SDS011;13604;52.496;13.456;2024-02-26T11:19:46;10.95;;;7.15;;
25758;SDS011;13604;52.496;13.456;2024-02-26T11:22:14;9.73;;;6.30;;
25758;SDS011;13604;52.496;13.456;2024-02-26T11:24:40;10.40;;;7.10;;
25758;SDS011;13604;52.496;13.456;2024-02-26T11:27:07;11.75;;;6.40;;
25758;SDS011;13604;52.496;13.456;2024-02-26T11:29:40;10.38;;;6.05;;
25758;SDS011;13604;52.496;13.456;2024-02-26T11:32:08;10.23;;;7.15;;
25758;SDS011;13604;52.496;13.456;2024-02-26T11:34:34;10.73;;;7.43;;
25758;SDS011;13604;52.496;13.456;2024-02-26T11:37:13;11.93;;;7.38;;
25758;SDS011;13604;52.496;13.456;2024-02-26T11:39:41;10.73;;;6.95;;
25758;SDS011;13604;52.496;13.456;2024-02-26T11:42:07;12.15;;;7.63;;
25758;SDS011;13604;52.496;13.456;2024-02-26T11:44:33;10.93;;;8.30;;
25758;SDS011;13604;52.496;13.456;2024-02-26T11:47:09;11.98;;;7.05;;
25758;SDS011;13604;52.496;13.456;2024-02-26T11:49:35;11.45;;;8.43;;
25758;SDS011;13604;52.496;13.456;2024-02-26T11:52:00;11.90;;;8.07;;
25758;SDS011;13604;52.496;13.456;2024-02-26T11:54:53;10.50;;;6.45;;
25758;SDS011;13604;52.496;13.456;2024-02-26T11:57:38;10.90;;;7.28;;
25758;SDS011;13604;52.496;13.456;2024-02-26T12:02:44;11.70;;;7.03;;
25758;SDS011;13604;52.496;13.456;2024-02-26T12:05:12;14.20;;;8.00;;
25758;SDS011;13604;52.496;13.456;2024-02-26T12:07:43;8.63;;;6.47;;
25758;SDS011;13604;52.496;13.456;2024-02-26T12:10:21;13.00;;;7.75;;
25758;SDS011;13604;52.496;13.456;2024-02-26T12:12:53;12.23;;;6.72;;
25758;SDS011;13604;52.496;13.456;2024-02-26T12:15:22;12.27;;;7.53;;
25758;SDS011;13604;52.496;13.456;2024-02-26T12:17:51;9.25;;;6.47;;
25758;SDS011;13604;52.496;13.456;2024-02-26T12:20:16;9.75;;;7.25;;
25758;SDS011;13604;52.496;13.456;2024-02-26T12:22:44;11.45;;;7.93;;
25758;SDS011;13604;52.496;13.456;2024-02-26T12:25:11;8.90;;;7.07;;
25758;SDS011;13604;52.496;13.456;2024-02-26T12:27:36;10.88;;;6.45;;
25758;SDS011;13604;52.496;13.456;2024-02-26T12:30:04;10.20;;;6.13;;
25758;SDS011;13604;52.496;13.456;2024-02-26T12:32:31;8.00;;;5.90;;
25758;SDS011;13604;52.496;13.456;2024-02-26T12:34:57;11.13;;;5.97;;
25758;SDS011;13604;52.496;13.456;2024-02-26T12:37:23;6.80;;;5.63;;
25758;SDS011;13604;52.496;13.456;2024-02-26T12:39:48;11.48;;;8.02;;
25758;SDS011;13604;52.496;13.456;2024-02-26T12:42:14;10.20;;;6.50;;
25758;SDS011;13604;52.496;13.456;2024-02-26T12:44:40;10.00;;;7.32;;
25758;SDS011;13604;52.496;13.456;2024-02-26T12:47:05;11.10;;;7.35;;
25758;SDS011;13604;52.496;13.456;2024-02-26T12:49:30;9.80;;;7.37;;
25758;SDS011;13604;52.496;13.456;2024-02-26T12:51:56;15.40;;;7.97;;
25758;SDS011;13604;52.496;13.456;2024-02-26T12:54:27;8.48;;;6.43;;
25758;SDS011;13604;52.496;13.456;2024-02-26T12:56:54;6.25;;;4.63;;
25758;SDS011;13604;52.496;13.456;2024-02-26T12:59:19;10.35;;;7.78;;
25758;SDS011;13604;52.496;13.456;2024-02-26T13:02:34;8.63;;;6.00;;
25758;SDS011;13604;52.496;13.456;2024-02-26T13:05:02;9.40;;;6.38;;
25758;SDS011;13604;52.496;13.456;2024-02-26T13:07:30;8.05;;;6.57;;
25758;SDS011;13604;52.496;13.456;2024-02-26T13:09:55;7.40;;;5.90;;
25758;SDS011;13604;52.496;13.456;2024-02-26T13:12:21;7.78;;;5.93;;
25758;SDS011;13604;52.496;13.456;2024-02-26T13:14:46;11.32;;;7.40;;
25758;SDS011;13604;52.496;13.456;2024-02-26T13:17:12;11.10;;;7.47;;
25758;SDS011;13604;52.496;13.456;2024-02-26T13:19:37;12.48;;;8.00;;
25758;SDS011;13604;52.496;13.456;2024-02-26T13:22:03;11.13;;;7.07;;
25758;SDS011;13604;52.496;13.456;2024-02-26T13:24:35;10.90;;;7.88;;
25758;SDS011;13604;52.496;13.456;2024-02-26T13:27:01;7.35;;;6.00;;
25758;SDS011;13604;52.496;13.456;2024-02-26T13:29:29;16.33;;;7.38;;
25758;SDS011;13604;52.496;13.456;2024-02-26T13:31:55;13.48;;;7.68;;
25758;SDS011;13604;52.496;13.456;2024-02-26T13:34:26;12.20;;;7.40;;
25758;SDS011;13604;52.496;13.456;2024-02-26T13:36:53;12.90;;;6.72;;
25758;SDS011;13604;52.496;13.456;2024-02-26T13:39:22;10.73;;;6.07;;
25758;SDS011;13604;52.496;13.456;2024-02-26T13:41:48;9.20;;;6.38;;
25758;SDS011;13604;52.496;13.456;2024-02-26T13:44:14;10.98;;;7.13;;
25758;SDS011;13604;52.496;13.456;2024-02-26T13:46:39;9.38;;;6.72;;
25758;SDS011;13604;52.496;13.456;2024-02-26T13:49:05;10.10;;;6.70;;
25758;SDS011;13604;52.496;13.456;2024-02-26T13:51:33;9.75;;;6.63;;
25758;SDS011;13604;52.496;13.456;2024-02-26T13:54:00;10.60;;;7.07;;
25758;SDS011;13604;52.496;13.456;2024-02-26T13:56:26;11.40;;;6.95;;
25758;SDS011;13604;52.496;13.456;2024-02-26T13:58:51;10.07;;;6.82;;
25758;SDS011;13604;52.496;13.456;2024-02-26T14:01:16;11.95;;;7.10;;
25758;SDS011;13604;52.496;13.456;2024-02-26T14:03:41;9.73;;;6.93;;
25758;SDS011;13604;52.496;13.456;2024-02-26T14:06:07;15.02;;;6.93;;
25758;SDS011;13604;52.496;13.456;2024-02-26T14:08:32;13.80;;;7.05;;
25758;SDS011;13604;52.496;13.456;2024-02-26T14:10:58;16.13;;;6.75;;